Terminal Aerodrome Forecast
Issued by NWS Cleveland, OH

Home | Current Version | Previous Version | Text Only | Print | Product List | Glossary Off
Versions: 1 2 3 4 5 6 7 8 9 10 11 12 13 14 15 16 17 18 19 20 21 22 23

000
FTUS41 KCLE 151133
TAFCLE
TAF
KCLE 151133Z 1512/1618 20015G25KT P6SM BKN050
      TEMPO 1515/1518 22022G35KT BKN028
     FM151800 23025G40KT P6SM -SHRA VCTS OVC025CB
     FM152000 27025G35KT P6SM OVC025
     FM152200 27018G30KT P6SM BKN035
     FM160400 30012KT P6SM BKN035=

USA.gov is the U.S. government's official web portal to all federal, state and local government web resources and services.